Terminal Aerodrome Forecast
Issued by NWS Billings, MT

Home | Current Version | Previous Version | Graphics & Text | Print | Product List | Glossary On
Versions: 1 2 3 4 5 6 7 8 9 10 11 12 13 14 15 16 17 18 19 20 21 22 23 24 25 26 27 28 29 30 31 32 33
000
FTUS45 KBYZ 270530
TAFMLS
TAF
KMLS 270530Z 2706/2806 09010KT P6SM BKN200
     FM270700 09009KT P6SM VCTS SCT080CB BKN100
     FM271200 08007KT P6SM VCSH BKN080
     FM272000 07011KT P6SM VCTS SCT070CB BKN100=

USA.gov is the U.S. government's official web portal to all federal, state and local government web resources and services.